Time;durP1;ratioP1;P1;durP2;ratioP2;P2;SDS_P1;SDS_P2;PMS_P1;PMS_P2;Temp;Humidity;BMP_temperature;BMP_pressure;BME280_temperature;BME280_humidity;BME280_pressure;Samples;Min_cycle;Max_cycle;Signal;HPM_P1;HPM_P2
2023/07/02 00:01:07;;;;;;;13.23;4.03;;;;;;;16.83;100.00;100719.19;4995126;28;20417;-76
2023/07/02 00:03:32;;;;;;;14.57;4.07;;;;;;;16.79;100.00;100728.03;5013863;28;20153;-76
2023/07/02 00:05:59;;;;;;;12.57;4.20;;;;;;;16.75;100.00;100716.75;5013500;28;20417;-76
2023/07/02 00:08:24;;;;;;;12.63;4.40;;;;;;;16.68;100.00;100710.53;5012847;28;20038;-77
2023/07/02 00:10:50;;;;;;;14.13;4.70;;;;;;;16.65;100.00;100709.13;4995178;28;20030;-77
2023/07/02 00:13:15;;;;;;;10.65;4.15;;;;;;;16.68;100.00;100707.81;5012254;28;20517;-77
2023/07/02 00:15:41;;;;;;;16.02;5.05;;;;;;;16.66;100.00;100704.50;5012676;28;20060;-77
2023/07/02 00:18:06;;;;;;;17.35;5.57;;;;;;;16.62;100.00;100701.41;5010010;28;20036;-77
2023/07/02 00:20:37;;;;;;;23.98;6.45;;;;;;;16.61;100.00;100698.91;5013545;28;20405;-78
2023/07/02 00:23:03;;;;;;;17.73;6.85;;;;;;;16.59;100.00;100693.72;5011879;28;20076;-77
2023/07/02 00:25:28;;;;;;;21.38;7.50;;;;;;;16.56;100.00;100698.75;5013109;28;20030;-77
2023/07/02 00:27:54;;;;;;;25.10;7.80;;;;;;;16.57;100.00;100686.84;4996702;28;20038;-76
2023/07/02 00:30:19;;;;;;;24.52;7.80;;;;;;;16.57;100.00;100686.84;5015691;28;20033;-77
2023/07/02 00:32:45;;;;;;;20.73;7.50;;;;;;;16.56;100.00;100687.88;4996293;28;20045;-77
2023/07/02 00:35:10;;;;;;;24.63;8.20;;;;;;;16.55;100.00;100683.53;5013741;28;20029;-77
2023/07/02 00:37:36;;;;;;;26.42;7.85;;;;;;;16.51;100.00;100687.72;5017307;28;20543;-77
2023/07/02 00:40:02;;;;;;;30.52;8.82;;;;;;;16.49;100.00;100687.16;5016657;28;20037;-77
2023/07/02 00:42:29;;;;;;;19.60;6.53;;;;;;;16.48;100.00;100688.19;4998703;28;20022;-77
2023/07/02 00:44:56;;;;;;;21.60;7.78;;;;;;;16.45;100.00;100681.31;5019410;28;20535;-77
2023/07/02 00:47:23;;;;;;;25.70;7.20;;;;;;;16.41;100.00;100680.94;5016972;28;20022;-76
2023/07/02 00:49:48;;;;;;;23.52;7.05;;;;;;;16.43;100.00;100681.56;4998871;28;20038;-77
2023/07/02 00:52:14;;;;;;;21.98;7.03;;;;;;;16.46;100.00;100680.28;5016940;28;20121;-77
2023/07/02 00:54:40;;;;;;;21.30;7.15;;;;;;;16.46;100.00;100675.66;5014229;28;20036;-77
2023/07/02 00:57:06;;;;;;;19.60;6.50;;;;;;;16.45;100.00;100670.44;5016012;28;20056;-77
2023/07/02 00:59:34;;;;;;;26.67;7.65;;;;;;;16.41;100.00;100669.25;4997354;28;20596;-77
2023/07/02 01:01:59;;;;;;;26.73;7.50;;;;;;;16.34;100.00;100673.91;4997309;28;20018;-77
2023/07/02 01:04:27;;;;;;;24.63;6.68;;;;;;;16.33;100.00;100673.09;5014429;28;20068;-77
2023/07/02 01:06:57;;;;;;;;;;;;;;;16.32;100.00;100679.56;5014889;28;20088;-76
2023/07/02 01:09:22;;;;;;;24.88;7.45;;;;;;;16.33;100.00;100664.94;5005461;28;19910;-77
2023/07/02 01:11:54;;;;;;;36.47;7.78;;;;;;;16.34;100.00;100673.91;4997668;28;20638;-78
2023/07/02 01:14:24;;;;;;;23.38;6.88;;;;;;;16.29;100.00;100677.28;4997249;28;20080;-77
2023/07/02 01:16:51;;;;;;;24.95;7.03;;;;;;;16.31;100.00;100677.91;5014048;28;20033;-76
2023/07/02 01:19:22;;;;;;;34.55;7.68;;;;;;;16.28;100.00;100678.34;5015472;28;20026;-76
2023/07/02 01:21:49;;;;;;;22.70;7.13;;;;;;;16.26;100.00;100679.63;4996706;28;20504;-77
2023/07/02 01:24:15;;;;;;;18.75;7.10;;;;;;;16.19;100.00;100677.81;5013964;28;20038;-77
2023/07/02 01:26:41;;;;;;;24.73;7.35;;;;;;;16.17;100.00;100681.81;5013353;28;20033;-77
2023/07/02 01:29:17;;;;;;;19.05;6.80;;;;;;;16.16;100.00;100672.81;4996330;28;20404;-77
2023/07/02 01:31:42;;;;;;;29.88;7.25;;;;;;;16.13;100.00;100675.16;5013279;28;20021;-76
2023/07/02 01:34:09;;;;;;;25.60;7.68;;;;;;;16.08;100.00;100673.09;5012478;28;20105;-77
2023/07/02 01:36:34;;;;;;;25.70;7.40;;;;;;;16.06;100.00;100674.38;5011613;28;20438;-76
2023/07/02 01:39:00;;;;;;;21.52;7.70;;;;;;;16.06;100.00;100674.38;5011819;28;20034;-76
2023/07/02 01:41:25;;;;;;;28.60;7.53;;;;;;;16.07;100.00;100662.47;5012393;28;20108;-76
2023/07/02 01:43:50;;;;;;;21.92;7.10;;;;;;;16.05;100.00;100664.56;5013586;28;20022;-76
2023/07/02 01:46:16;;;;;;;26.85;7.53;;;;;;;16.03;100.00;100659.34;5012705;28;20104;-77
2023/07/02 01:48:41;;;;;;;21.50;7.57;;;;;;;15.98;100.00;100662.75;4995397;28;20112;-77
2023/07/02 01:51:07;;;;;;;22.85;7.30;;;;;;;15.93;100.00;100664.44;5011913;28;20226;-76
2023/07/02 01:53:32;;;;;;;23.58;7.63;;;;;;;15.90;100.00;100665.72;5012458;28;20045;-77
2023/07/02 01:55:57;;;;;;;28.05;8.23;;;;;;;15.91;100.00;100670.13;4995525;28;20149;-76
2023/07/02 01:58:23;;;;;;;31.27;7.75;;;;;;;15.85;100.00;100657.44;5013087;28;20030;-76
2023/07/02 02:00:48;;;;;;;25.80;7.43;;;;;;;15.83;100.00;100664.97;5012596;28;20053;-77
2023/07/02 02:03:14;;;;;;;32.83;8.70;;;;;;;15.79;100.00;100674.59;4991881;28;20224;-77
2023/07/02 02:05:39;;;;;;;27.75;7.93;;;;;;;15.79;100.00;100675.41;4993632;28;20022;-77
2023/07/02 02:08:04;;;;;;;22.58;7.63;;;;;;;15.79;100.00;100685.44;4993381;28;20052;-77
2023/07/02 02:10:30;;;;;;;27.23;7.88;;;;;;;15.78;100.00;100684.63;4993009;28;20022;-76
2023/07/02 02:12:55;;;;;;;33.22;8.60;;;;;;;15.75;100.00;100686.94;5008010;28;20160;-76
2023/07/02 02:15:20;;;;;;;25.98;8.20;;;;;;;15.76;100.00;100683.19;5013134;28;20033;-76
2023/07/02 02:17:46;;;;;;;28.40;8.10;;;;;;;15.79;100.00;100690.88;5013112;28;20099;-77
2023/07/02 02:20:12;;;;;;;22.63;7.85;;;;;;;15.79;100.00;100691.69;5012904;28;20026;-76
2023/07/02 02:22:37;;;;;;;22.70;7.95;;;;;;;15.78;100.00;100697.38;5013306;28;20038;-76
2023/07/02 02:25:03;;;;;;;24.98;7.50;;;;;;;15.78;100.00;100700.06;5012821;28;20022;-77
2023/07/02 02:27:29;;;;;;;34.20;8.30;;;;;;;15.76;100.00;100707.59;5012628;28;20068;-76
2023/07/02 02:29:54;;;;;;;32.78;8.05;;;;;;;15.75;100.00;100703.22;5012466;28;20044;-77
2023/07/02 02:32:21;;;;;;;29.20;7.95;;;;;;;15.72;100.00;100709.09;5013274;28;20033;-77
2023/07/02 02:34:47;;;;;;;30.93;8.03;;;;;;;15.68;100.00;100705.13;5012830;28;20056;-76
2023/07/02 02:37:12;;;;;;;28.67;7.50;;;;;;;15.66;100.00;100720.78;5012458;28;20485;-76
2023/07/02 02:39:37;;;;;;;36.22;8.57;;;;;;;15.62;100.00;100708.72;5011412;28;20022;-75
2023/07/02 02:42:03;;;;;;;23.75;7.07;;;;;;;15.62;100.00;100701.41;5013009;28;20034;-77
2023/07/02 02:44:29;;;;;;;26.70;7.38;;;;;;;15.60;100.00;100711.63;5012568;28;20018;-76
2023/07/02 02:46:55;;;;;;;29.73;7.72;;;;;;;15.56;100.00;100716.69;5011695;28;20040;-75
2023/07/02 02:49:20;;;;;;;34.42;7.97;;;;;;;15.53;100.00;100718.97;5011747;28;20036;-76
2023/07/02 02:51:45;;;;;;;23.48;7.07;;;;;;;15.52;100.00;100718.16;5011943;28;20026;-76
2023/07/02 02:54:11;;;;;;;22.88;6.38;;;;;;;15.53;100.00;100703.56;5011741;28;20481;-78
2023/07/02 02:56:36;;;;;;;28.65;7.05;;;;;;;15.51;100.00;100716.50;5011227;28;20073;-75
2023/07/02 02:59:02;;;;;;;29.98;7.03;;;;;;;15.47;100.00;100717.97;5011933;28;20037;-76
2023/07/02 03:01:29;;;;;;;30.27;7.63;;;;;;;15.45;100.00;100711.91;5012125;28;20056;-76
2023/07/02 03:03:55;;;;;;;;;;;;;;;15.44;100.00;100709.44;5012370;28;20465;-75
2023/07/02 03:06:20;;;;;;;35.22;7.55;;;;;;;15.42;100.00;100709.66;4991519;28;19937;-77
2023/07/02 03:08:45;;;;;;;28.15;7.00;;;;;;;15.41;100.00;100697.16;5004045;28;20520;-77
2023/07/02 03:11:11;;;;;;;24.45;7.00;;;;;;;15.37;100.00;100699.44;5012424;28;20037;-77
2023/07/02 03:13:36;;;;;;;28.05;6.35;;;;;;;15.34;100.00;100708.03;5011787;28;20026;-77
2023/07/02 03:16:02;;;;;;;29.60;7.82;;;;;;;15.40;100.00;100710.91;5012838;28;20116;-76
2023/07/02 03:18:27;;;;;;;27.20;6.70;;;;;;;15.33;100.00;100709.06;5013057;28;20045;-77
2023/07/02 03:20:53;;;;;;;20.55;6.97;;;;;;;15.34;100.00;100712.63;5013804;28;20079;-77
2023/07/02 03:23:18;;;;;;;26.88;7.00;;;;;;;15.28;100.00;100710.78;5011997;28;20469;-77
2023/07/02 03:25:43;;;;;;;24.42;7.15;;;;;;;15.28;100.00;100710.78;5011055;28;20068;-77
2023/07/02 03:28:09;;;;;;;24.58;6.22;;;;;;;15.27;100.00;100712.66;5011932;28;20425;-76
2023/07/02 03:30:34;;;;;;;19.10;6.43;;;;;;;15.28;100.00;100721.63;5010941;28;20026;-77
2023/07/02 03:32:59;;;;;;;27.88;7.93;;;;;;;15.27;100.00;100719.94;5014394;28;20080;-76
2023/07/02 03:35:25;;;;;;;20.13;6.13;;;;;;;15.25;100.00;100722.06;5012669;28;20064;-78
2023/07/02 03:37:50;;;;;;;17.67;5.78;;;;;;;15.23;100.00;100722.25;5011700;28;20525;-77
2023/07/02 03:40:16;;;;;;;23.17;6.78;;;;;;;15.21;100.00;100716.22;5011839;28;20033;-76
2023/07/02 03:42:43;;;;;;;23.13;6.28;;;;;;;15.20;100.00;100724.59;5011457;28;20025;-76
2023/07/02 03:45:09;;;;;;;23.60;6.15;;;;;;;15.18;100.00;100723.97;5011562;28;20033;-76
2023/07/02 03:47:34;;;;;;;22.92;6.47;;;;;;;15.19;100.00;100733.75;5012557;28;20033;-78
2023/07/02 03:50:00;;;;;;;21.40;6.10;;;;;;;15.18;100.00;100734.81;5011001;28;20049;-77
2023/07/02 03:52:25;;;;;;;29.77;6.75;;;;;;;15.23;100.00;100729.56;5012640;28;20032;-79
2023/07/02 03:54:51;;;;;;;26.45;6.55;;;;;;;15.20;100.00;100735.44;5011825;28;20041;-77
2023/07/02 03:57:16;;;;;;;23.88;5.90;;;;;;;15.20;100.00;100735.44;5011239;28;20353;-78
2023/07/02 03:59:41;;;;;;;20.90;5.40;;;;;;;15.23;100.00;100737.72;5012332;28;20034;-77
2023/07/02 04:02:07;;;;;;;21.85;6.30;;;;;;;15.22;100.00;100738.72;5009432;28;20030;-76
2023/07/02 04:04:32;;;;;;;20.77;5.60;;;;;;;15.22;100.00;100744.16;5012129;28;20160;-77
2023/07/02 04:06:57;;;;;;;27.83;6.38;;;;;;;15.21;100.00;100734.38;5011883;28;20048;-76
2023/07/02 04:09:23;;;;;;;18.85;5.78;;;;;;;15.22;100.00;100744.16;5014973;28;20041;-77
2023/07/02 04:11:48;;;;;;;22.25;5.72;;;;;;;15.23;100.00;100737.72;5015026;28;20105;-77
2023/07/02 04:14:14;;;;;;;19.88;6.20;;;;;;;15.25;100.00;100739.16;5015038;28;20477;-77
2023/07/02 04:16:39;;;;;;;26.17;5.90;;;;;;;15.28;100.00;100751.44;4997918;28;20109;-77
2023/07/02 04:19:04;;;;;;;25.65;6.57;;;;;;;15.28;100.00;100754.16;5015368;28;20053;-78
2023/07/02 04:21:30;;;;;;;21.70;5.75;;;;;;;15.31;100.00;100753.72;5015204;28;20049;-76
2023/07/02 04:23:55;;;;;;;16.27;5.88;;;;;;;15.31;100.00;100764.56;5015449;28;20446;-76
2023/07/02 04:26:21;;;;;;;24.75;6.93;;;;;;;15.36;100.00;100768.28;5014829;28;20022;-76
2023/07/02 04:28:46;;;;;;;23.13;5.40;;;;;;;15.40;100.00;100765.97;5011010;28;20451;-77
2023/07/02 04:31:11;;;;;;;21.50;6.28;;;;;;;15.44;100.00;100775.38;5012603;28;20037;-76
2023/07/02 04:33:37;;;;;;;23.02;5.75;;;;;;;15.48;100.00;100773.03;5013940;28;20026;-77
2023/07/02 04:36:03;;;;;;;22.58;6.38;;;;;;;15.45;100.00;100771.59;5013753;28;20124;-77
2023/07/02 04:38:28;;;;;;;26.33;6.32;;;;;;;15.46;100.00;100784.13;4995858;28;20029;-76
2023/07/02 04:40:54;;;;;;;24.38;6.20;;;;;;;15.47;100.00;100787.66;5012938;28;20034;-77
2023/07/02 04:43:19;;;;;;;24.20;5.35;;;;;;;15.48;100.00;100779.31;5016933;28;20366;-77
2023/07/02 04:45:47;;;;;;;20.77;5.80;;;;;;;15.56;100.00;100783.63;5012950;28;20120;-77
2023/07/02 04:48:13;;;;;;;;;;;;;;;15.60;100.00;100782.16;5014536;28;20057;-77
2023/07/02 04:50:38;;;;;;;19.92;4.85;;;;;;;15.61;100.00;100793.84;5012522;28;19921;-77
2023/07/02 04:53:04;;;;;;;21.27;5.57;;;;;;;15.65;100.00;100781.53;5012645;28;20128;-77
2023/07/02 04:55:29;;;;;;;18.67;5.75;;;;;;;15.69;100.00;100785.47;5011878;28;20037;-77
2023/07/02 04:57:55;;;;;;;25.35;5.82;;;;;;;15.69;100.00;100778.19;5016112;28;20114;-77
2023/07/02 05:00:22;;;;;;;25.67;5.47;;;;;;;15.72;100.00;100776.94;5010874;28;20114;-77
2023/07/02 05:02:47;;;;;;;19.30;5.33;;;;;;;15.78;100.00;100792.34;5010929;28;20030;-76
2023/07/02 05:05:12;;;;;;;19.45;5.20;;;;;;;15.81;100.00;100791.91;5011659;28;20428;-77
2023/07/02 05:07:40;;;;;;;21.33;5.72;;;;;;;15.79;100.00;100797.53;4994943;28;20381;-77
2023/07/02 05:10:06;;;;;;;21.08;5.55;;;;;;;15.80;100.00;100792.97;5011546;28;20037;-76
2023/07/02 05:12:32;;;;;;;21.10;6.03;;;;;;;15.87;100.00;100787.47;5011619;28;20784;-76
2023/07/02 05:14:57;;;;;;;22.23;5.95;;;;;;;15.92;100.00;100802.06;5011778;28;20037;-77
2023/07/02 05:17:23;;;;;;;19.00;5.70;;;;;;;15.95;100.00;100798.06;5012846;28;20018;-77
2023/07/02 05:19:49;;;;;;;18.23;5.50;;;;;;;16.00;100.00;100801.78;4995178;28;20112;-76
2023/07/02 05:22:14;;;;;;;24.73;6.07;;;;;;;16.06;100.00;100802.81;5012243;28;20128;-77
2023/07/02 05:24:40;;;;;;;17.42;5.47;;;;;;;16.09;100.00;100798.81;5015064;28;20133;-77
2023/07/02 05:27:06;;;;;;;19.73;6.47;;;;;;;16.08;100.00;100808.00;4995627;28;20064;-77
2023/07/02 05:29:31;;;;;;;21.33;5.60;;;;;;;16.16;100.00;100799.59;5013139;28;20053;-76
2023/07/02 05:31:57;;;;;;;17.27;5.90;;;;;;;16.13;100.00;100816.34;5013802;28;20049;-76
2023/07/02 05:34:22;;;;;;;17.38;5.45;;;;;;;16.12;100.00;100799.22;5014980;28;20053;-77
2023/07/02 05:36:47;;;;;;;26.67;6.05;;;;;;;16.12;100.00;100820.13;5013840;28;20484;-77
2023/07/02 05:39:13;;;;;;;22.02;5.40;;;;;;;16.18;100.00;100824.66;5015266;28;20092;-76
2023/07/02 05:41:38;;;;;;;21.27;5.30;;;;;;;16.20;100.00;100817.13;5014330;28;20080;-76
2023/07/02 05:44:04;;;;;;;24.20;5.78;;;;;;;16.15;100.00;100820.50;5014065;28;20076;-77
2023/07/02 05:46:29;;;;;;;24.30;5.43;;;;;;;16.22;100.00;100820.47;5013558;28;20068;-77
2023/07/02 05:48:57;;;;;;;21.23;5.70;;;;;;;16.27;100.00;100823.31;5013108;28;20476;-76
2023/07/02 05:51:24;;;;;;;19.70;6.13;;;;;;;16.27;100.00;100828.75;5012867;28;20063;-76
2023/07/02 05:53:50;;;;;;;24.40;6.15;;;;;;;16.33;100.00;100827.91;4994275;28;20048;-76
2023/07/02 05:56:16;;;;;;;20.05;5.55;;;;;;;16.34;100.00;100839.59;5012355;28;20056;-76
2023/07/02 05:58:41;;;;;;;21.58;5.20;;;;;;;16.41;100.00;100846.63;5010610;28;20485;-76
2023/07/02 06:01:07;;;;;;;25.38;5.82;;;;;;;16.42;100.00;100840.13;5003529;28;20117;-77
2023/07/02 06:03:32;;;;;;;19.60;5.25;;;;;;;16.56;100.00;100845.47;4995142;28;20064;-77
2023/07/02 06:05:58;;;;;;;18.02;5.28;;;;;;;16.67;100.00;100844.78;5003555;28;20037;-76
2023/07/02 06:08:23;;;;;;;19.85;5.32;;;;;;;16.73;100.00;100848.47;4996337;28;20030;-77
2023/07/02 06:10:49;;;;;;;21.30;5.55;;;;;;;16.72;100.00;100853.09;5011856;28;20063;-77
2023/07/02 06:13:14;;;;;;;18.90;6.13;;;;;;;16.77;100.00;100855.13;4996767;28;20485;-77
2023/07/02 06:15:40;;;;;;;23.48;5.93;;;;;;;16.96;100.00;100856.88;5013227;28;20188;-77
2023/07/02 06:18:06;;;;;;;24.67;5.70;;;;;;;16.98;100.00;100859.34;5013166;28;20083;-76
2023/07/02 06:20:31;;;;;;;18.63;5.10;;;;;;;17.01;100.00;100854.31;5014217;28;20033;-77
2023/07/02 06:22:56;;;;;;;17.02;5.53;;;;;;;17.07;100.00;100855.28;5014967;28;20026;-77
2023/07/02 06:25:22;;;;;;;20.02;5.78;;;;;;;17.22;100.00;100858.50;5012202;28;20030;-77
2023/07/02 06:27:48;;;;;;;24.17;6.15;;;;;;;17.39;100.00;100864.16;4988658;28;20141;-77
2023/07/02 06:30:13;;;;;;;19.30;5.63;;;;;;;17.69;100.00;100860.66;5015396;28;20033;-77
2023/07/02 06:32:38;;;;;;;21.73;6.35;;;;;;;18.00;100.00;100859.66;5013845;28;20124;-77
2023/07/02 06:35:06;;;;;;;27.10;6.60;;;;;;;18.33;100.00;100863.81;5014132;28;20038;-78
2023/07/02 06:37:32;;;;;;;15.93;5.35;;;;;;;18.23;100.00;100860.81;5019137;28;20022;-78
2023/07/02 06:39:57;;;;;;;16.13;5.50;;;;;;;18.34;100.00;100869.00;5014950;28;20030;-77
2023/07/02 06:42:23;;;;;;;18.23;6.60;;;;;;;18.19;100.00;100872.19;4992279;28;20509;-76
2023/07/02 06:44:50;;;;;;;16.00;4.90;;;;;;;18.23;100.00;100871.72;4991106;28;20034;-77
2023/07/02 06:47:15;;;;;;;19.67;5.15;;;;;;;18.34;100.00;100873.63;4992518;28;20362;-75
2023/07/02 06:49:40;;;;;;;21.95;5.72;;;;;;;18.60;100.00;100875.94;5000884;28;20022;-77
2023/07/02 06:52:06;;;;;;;26.20;5.95;;;;;;;18.58;100.00;100877.25;5012683;28;20022;-77
2023/07/02 06:54:31;;;;;;;14.23;5.25;;;;;;;18.71;100.00;100887.94;4993903;28;20381;-77
2023/07/02 06:56:57;;;;;;;17.15;5.25;;;;;;;18.87;100.00;100875.53;5010531;28;20177;-78
2023/07/02 06:59:23;;;;;;;20.02;5.28;;;;;;;19.04;100.00;100890.13;4976058;28;20037;-77
2023/07/02 07:01:49;;;;;;;19.00;5.30;;;;;;;19.19;99.51;100888.81;4994494;28;20477;-77
2023/07/02 07:04:15;;;;;;;13.32;4.70;;;;;;;19.52;99.62;100889.03;5010904;28;20127;-76
2023/07/02 07:06:41;;;;;;;11.90;5.25;;;;;;;19.93;98.85;100900.84;5011451;28;20065;-77
2023/07/02 07:09:06;;;;;;;19.63;5.53;;;;;;;19.66;95.67;100895.06;4989158;28;20030;-77
2023/07/02 07:11:32;;;;;;;13.93;5.32;;;;;;;19.87;96.35;100901.78;5008217;28;20036;-77
2023/07/02 07:13:57;;;;;;;22.33;6.65;;;;;;;20.11;96.37;100907.16;4997592;28;20111;-77
2023/07/02 07:16:23;;;;;;;17.08;5.68;;;;;;;20.36;94.14;100915.84;5010837;28;20433;-77
2023/07/02 07:18:48;;;;;;;12.43;4.82;;;;;;;20.96;91.05;100903.50;5032424;28;20093;-78
2023/07/02 07:21:13;;;;;;;14.65;5.03;;;;;;;21.70;87.73;100922.38;5013661;28;20198;-76
2023/07/02 07:23:39;;;;;;;17.02;5.40;;;;;;;22.01;85.96;100920.03;5012134;28;20060;-76
2023/07/02 07:26:05;;;;;;;15.77;4.97;;;;;;;22.46;81.96;100927.13;5012817;28;20041;-77
2023/07/02 07:28:30;;;;;;;20.55;5.78;;;;;;;22.57;81.22;100923.38;5013210;28;20486;-76
2023/07/02 07:30:56;;;;;;;18.48;5.45;;;;;;;23.08;80.40;100922.19;5012365;28;20108;-77
2023/07/02 07:33:21;;;;;;;18.77;5.30;;;;;;;23.66;78.45;100918.41;4997477;28;20034;-77
2023/07/02 07:35:47;;;;;;;16.17;5.78;;;;;;;24.15;78.80;100942.00;5006089;28;20052;-77
2023/07/02 07:38:19;;;;;;;17.13;5.13;;;;;;;24.35;77.15;100945.91;5015082;28;20054;-78
2023/07/02 07:40:45;;;;;;;14.73;5.40;;;;;;;24.68;76.14;100937.19;5013407;28;20030;-77
2023/07/02 07:43:10;;;;;;;15.88;5.60;;;;;;;24.97;74.42;100947.66;4994649;28;20469;-77
2023/07/02 07:45:37;;;;;;;14.57;5.13;;;;;;;24.98;71.20;100943.78;5014090;28;20112;-78
2023/07/02 07:48:03;;;;;;;14.17;5.40;;;;;;;24.64;72.80;100944.34;5012301;28;20026;-77
2023/07/02 07:50:29;;;;;;;12.57;5.50;;;;;;;23.97;73.10;100951.56;5014316;28;20338;-77
2023/07/02 07:52:54;;;;;;;13.93;5.28;;;;;;;24.09;72.58;100940.31;5017140;28;20288;-75
2023/07/02 07:55:19;;;;;;;16.92;4.97;;;;;;;24.30;71.50;100947.56;5017739;28;20041;-76
2023/07/02 07:57:45;;;;;;;21.65;5.30;;;;;;;25.01;69.20;100940.50;5013695;28;20046;-77
2023/07/02 08:00:11;;;;;;;16.17;5.30;;;;;;;25.00;68.23;100936.09;5013050;28;20025;-76
2023/07/02 08:02:36;;;;;;;15.77;5.30;;;;;;;24.87;67.44;100945.72;5013066;28;20421;-77
2023/07/02 08:05:03;;;;;;;19.67;5.05;;;;;;;25.12;69.33;100944.06;5011948;28;20484;-77
2023/07/02 08:07:28;;;;;;;13.38;5.20;;;;;;;25.10;68.69;100949.03;5011834;28;20033;-77
2023/07/02 08:09:53;;;;;;;15.15;4.50;;;;;;;25.07;68.44;100955.94;5010851;28;20030;-75
2023/07/02 08:12:19;;;;;;;16.13;5.60;;;;;;;25.35;67.71;100953.72;5012561;28;20022;-77
2023/07/02 08:14:44;;;;;;;13.55;4.88;;;;;;;25.23;67.19;100950.44;5011048;28;20315;-77
2023/07/02 08:17:09;;;;;;;15.10;5.50;;;;;;;25.18;68.47;100954.84;4995234;28;20088;-77
2023/07/02 08:19:35;;;;;;;19.35;5.47;;;;;;;25.56;69.88;100958.06;4998251;28;20026;-77
2023/07/02 08:22:00;;;;;;;19.08;5.47;;;;;;;25.75;68.20;100951.94;5019801;28;20033;-77
2023/07/02 08:24:26;;;;;;;17.73;5.53;;;;;;;25.85;67.76;100960.22;5014028;28;20108;-75
2023/07/02 08:26:51;;;;;;;15.75;5.82;;;;;;;25.78;68.89;100968.78;4978817;28;20408;-76
2023/07/02 08:29:16;;;;;;;16.65;5.63;;;;;;;25.57;70.37;100962.50;5008172;28;20037;-76
2023/07/02 08:31:42;;;;;;;21.35;5.80;;;;;;;25.67;71.77;100966.31;5010896;28;20022;-76
2023/07/02 08:34:08;;;;;;;18.13;5.95;;;;;;;25.92;71.95;100963.50;5010140;28;20262;-78
2023/07/02 08:36:33;;;;;;;24.30;6.53;;;;;;;26.16;70.69;100976.66;5009798;28;20026;-75
2023/07/02 08:38:59;;;;;;;16.02;5.20;;;;;;;26.18;68.31;100977.19;4993094;28;20481;-76
2023/07/02 08:41:24;;;;;;;12.20;4.50;;;;;;;25.68;67.58;100967.97;5011543;28;20045;-78
2023/07/02 08:43:54;;;;;;;21.60;5.22;;;;;;;25.87;68.60;100960.75;5008815;28;20236;-77
2023/07/02 08:46:19;;;;;;;17.08;5.38;;;;;;;26.14;67.73;100971.41;4998076;28;20112;-76
2023/07/02 08:48:46;;;;;;;15.32;5.25;;;;;;;26.15;67.56;100972.25;5014914;28;20049;-76
2023/07/02 08:51:12;;;;;;;17.70;5.35;;;;;;;25.83;67.88;100977.03;4995886;28;20029;-77
2023/07/02 08:53:37;;;;;;;19.50;5.15;;;;;;;25.50;70.44;100974.91;5020994;28;20037;-77
2023/07/02 08:56:03;;;;;;;15.10;5.45;;;;;;;25.72;68.17;100980.91;5014760;28;20045;-77
2023/07/02 08:58:29;;;;;;;14.10;4.60;;;;;;;25.67;69.13;100988.34;5023662;28;20100;-77
2023/07/02 09:01:10;;;;;;;13.75;5.03;;;;;;;25.27;69.60;100984.56;5016753;28;20061;-76
2023/07/02 09:03:37;;;;;;;12.73;4.63;;;;;;;25.46;68.45;100979.31;5012401;28;20115;-78
2023/07/02 09:06:03;;;;;;;12.93;4.83;;;;;;;26.03;67.84;100997.38;5015308;28;20153;-79
2023/07/02 09:08:29;;;;;;;17.00;4.60;;;;;;;26.02;65.14;100985.53;4993155;28;20030;-77
2023/07/02 09:11:04;;;;;;;16.65;4.85;;;;;;;25.34;65.17;100987.88;5016132;28;20040;-77
2023/07/02 09:13:30;;;;;;;8.80;4.43;;;;;;;25.57;68.98;100983.72;5015009;28;20060;-79
2023/07/02 09:15:55;;;;;;;18.80;5.43;;;;;;;25.90;69.62;100993.28;5009315;28;20919;-77
2023/07/02 09:18:24;;;;;;;17.40;4.68;;;;;;;25.97;68.19;100995.75;5013478;28;20037;-78
2023/07/02 09:20:58;;;;;;;15.10;4.80;;;;;;;26.25;65.81;100989.56;5014213;28;20022;-79
2023/07/02 09:23:35;;;;;;;13.95;4.85;;;;;;;26.38;65.69;100995.56;5015328;28;20030;-78
2023/07/02 09:26:00;;;;;;;19.35;4.80;;;;;;;26.42;64.83;100993.88;5004363;28;20030;-76
2023/07/02 09:28:25;;;;;;;14.75;5.13;;;;;;;25.87;65.28;100999.38;5017100;28;20497;-77
2023/07/02 09:30:51;;;;;;;14.13;4.57;;;;;;;25.72;66.92;100991.91;5014810;28;20026;-77
2023/07/02 09:33:17;;;;;;;15.27;4.78;;;;;;;25.19;70.69;100984.03;5014372;28;20025;-77
2023/07/02 09:35:42;;;;;;;13.77;4.63;;;;;;;25.68;70.45;100993.59;5012254;28;20117;-77
2023/07/02 09:38:08;;;;;;;16.38;5.10;;;;;;;25.72;66.91;100988.34;5016619;28;20029;-79
2023/07/02 09:40:33;;;;;;;14.50;4.90;;;;;;;25.84;65.43;100998.00;5000433;28;20053;-77
2023/07/02 09:42:59;;;;;;;12.60;4.32;;;;;;;25.97;66.03;100987.47;4995492;28;20069;-78
2023/07/02 09:45:25;;;;;;;15.05;4.45;;;;;;;26.15;62.30;100989.63;5016381;28;20037;-78
2023/07/02 09:47:52;;;;;;;14.98;4.43;;;;;;;26.33;61.51;100992.81;5016334;28;20449;-77
2023/07/02 09:50:17;;;;;;;15.25;4.25;;;;;;;26.36;61.51;100989.53;5001271;28;20048;-76
2023/07/02 09:52:45;;;;;;;11.70;4.78;;;;;;;26.36;62.42;100990.34;4996887;28;20022;-77
2023/07/02 09:55:11;;;;;;;13.43;5.00;;;;;;;25.97;63.10;100993.00;5010890;28;20030;-78
2023/07/02 09:57:39;;;;;;;13.27;4.97;;;;;;;26.28;64.32;100993.69;5013852;28;20164;-77
2023/07/02 10:00:05;;;;;;;14.27;4.75;;;;;;;26.33;61.69;101001.09;5019676;28;20566;-78
2023/07/02 10:02:31;;;;;;;13.38;4.30;;;;;;;25.54;59.41;101003.53;5015704;28;20025;-77
2023/07/02 10:04:57;;;;;;;12.17;4.77;;;;;;;26.04;62.47;100999.88;5007330;28;20104;-76
2023/07/02 10:07:30;;;;;;;18.35;5.28;;;;;;;25.26;62.29;100999.47;5012780;28;20358;-76
2023/07/02 10:09:56;;;;;;;21.38;5.07;;;;;;;25.95;63.66;100996.03;5010181;28;20161;-77
2023/07/02 10:12:26;;;;;;;14.63;4.75;;;;;;;26.64;63.89;100996.25;5012297;28;20049;-78
2023/07/02 10:14:56;;;;;;;15.00;5.30;;;;;;;26.87;60.40;101000.25;5007683;28;20116;-77
2023/07/02 10:17:32;;;;;;;16.10;4.75;;;;;;;26.86;57.12;101004.13;5012543;28;20031;-77
2023/07/02 10:20:11;;;;;;;12.65;4.60;;;;;;;26.38;57.63;101004.66;5015507;28;20030;-77
2023/07/02 10:23:03;;;;;;;14.95;5.07;;;;;;;26.28;60.08;101004.72;5018877;28;20393;-77
2023/07/02 10:25:31;;;;;;;15.50;5.22;;;;;;;26.26;61.45;101012.47;5012908;28;20106;-77
2023/07/02 10:27:58;;;;;;;20.65;4.80;;;;;;;26.04;58.82;101015.56;5013747;28;20104;-77
2023/07/02 10:30:35;;;;;;;16.10;4.80;;;;;;;26.27;62.03;101019.63;5010396;28;20026;-79
2023/07/02 10:33:12;;;;;;;14.13;4.95;;;;;;;26.92;54.78;101009.31;5014730;28;20038;-77
2023/07/02 10:35:38;;;;;;;12.27;4.35;;;;;;;25.99;54.56;101019.19;5015694;28;20104;-77
2023/07/02 10:38:06;;;;;;;12.97;4.73;;;;;;;25.56;56.90;101015.94;5011459;28;20446;-77
2023/07/02 10:40:33;;;;;;;10.32;4.28;;;;;;;25.71;55.55;101017.03;5001595;28;20025;-77
2023/07/02 10:42:58;;;;;;;14.25;5.35;;;;;;;25.73;59.54;101023.91;5017310;28;20056;-77
2023/07/02 10:45:31;;;;;;;13.90;5.38;;;;;;;25.67;59.59;101019.50;5018534;28;20033;-78
2023/07/02 10:47:57;;;;;;;12.75;4.97;;;;;;;25.29;60.09;101018.19;5018643;28;20451;-77
2023/07/02 10:50:23;;;;;;;17.08;4.63;;;;;;;25.48;55.95;101013.75;5008583;28;20034;-79
2023/07/02 10:52:52;;;;;;;14.18;5.00;;;;;;;25.32;58.95;101014.88;5002736;28;20030;-79
2023/07/02 10:55:18;;;;;;;16.50;4.93;;;;;;;25.18;58.04;101017.38;5011823;28;20042;-77
2023/07/02 10:57:44;;;;;;;13.73;4.40;;;;;;;25.43;55.05;101016.50;4991260;28;20058;-77
2023/07/02 11:00:09;;;;;;;13.98;5.57;;;;;;;25.96;56.74;101025.28;4993649;28;20110;-77
2023/07/02 11:02:39;;;;;;;15.73;5.43;;;;;;;26.23;53.86;101027.66;5013247;28;20405;-77
2023/07/02 11:05:14;;;;;;;23.77;5.70;;;;;;;25.88;53.48;101025.81;5016430;28;20150;-76
2023/07/02 11:07:43;;;;;;;15.32;5.70;;;;;;;25.42;57.97;101025.88;5003871;28;20262;-78